Time;durP1;ratioP1;P1;durP2;ratioP2;P2;SDS_P1;SDS_P2;PMS_P1;PMS_P2;Temp;Humidity;BMP_temperature;BMP_pressure;BME280_temperature;BME280_humidity;BME280_pressure;Samples;Min_cycle;Max_cycle;Signal;HPM_P1;HPM_P2
2023/07/14 00:00:20;;;;;;;5.05;2.78;;;;;;;;;;5054574;28;20021;-26
2023/07/14 00:02:47;;;;;;;6.03;2.97;;;;;;;;;;5054461;28;20360;-31
2023/07/14 00:05:17;;;;;;;5.28;3.35;;;;;;;;;;5054625;28;20190;-30
2023/07/14 00:07:44;;;;;;;7.32;3.03;;;;;;;;;;5054697;28;20033;-28
2023/07/14 00:10:14;;;;;;;9.43;3.63;;;;;;;;;;5061226;28;20055;-30
2023/07/14 00:12:41;;;;;;;7.72;2.38;;;;;;;;;;5061260;28;20028;-30
2023/07/14 00:15:07;;;;;;;7.43;2.55;;;;;;;;;;5061350;28;20060;-27
2023/07/14 00:17:33;;;;;;;7.50;3.05;;;;;;;;;;5061023;28;20040;-29
2023/07/14 00:19:59;;;;;;;8.82;2.83;;;;;;;;;;5061016;28;20032;-31
2023/07/14 00:22:26;;;;;;;10.60;2.70;;;;;;;;;;5060991;28;20049;-30
2023/07/14 00:24:52;;;;;;;12.70;2.17;;;;;;;;;;5061113;28;20380;-30
2023/07/14 00:27:19;;;;;;;6.85;2.30;;;;;;;;;;5060910;28;20506;-32
2023/07/14 00:29:45;;;;;;;9.13;2.85;;;;;;;;;;5061438;28;20333;-31
2023/07/14 00:32:19;;;;;;;4.82;2.22;;;;;;;;;;5060819;28;20444;-29
2023/07/14 00:34:46;;;;;;;7.45;2.30;;;;;;;;;;5061171;28;20040;-29
2023/07/14 00:37:12;;;;;;;8.07;3.58;;;;;;;;;;5061162;28;20029;-29
2023/07/14 00:39:39;;;;;;;7.35;2.70;;;;;;;;;;5061085;28;20025;-29
2023/07/14 00:42:07;;;;;;;6.30;2.30;;;;;;;;;;5060871;28;20071;-29
2023/07/14 00:44:36;;;;;;;5.22;2.63;;;;;;;;;;5060798;28;20020;-29
2023/07/14 00:47:05;;;;;;;5.40;2.58;;;;;;;;;;5043144;28;20478;-30
2023/07/14 00:49:32;;;;;;;4.05;2.65;;;;;;;;;;5060690;28;20029;-30
2023/07/14 00:52:01;;;;;;;7.85;2.83;;;;;;;;;;5060704;28;20452;-31
2023/07/14 00:54:28;;;;;;;4.47;2.75;;;;;;;;;;5060731;28;20045;-31
2023/07/14 00:56:55;;;;;;;8.85;3.22;;;;;;;;;;5060972;28;20021;-30
2023/07/14 00:59:22;;;;;;;8.38;2.28;;;;;;;;;;5043098;28;20029;-30
2023/07/14 01:02:07;;;;;;;9.30;1.98;;;;;;;;;;5060877;28;20025;-28
2023/07/14 01:04:33;;;;;;;6.07;2.90;;;;;;;;;;5058140;28;20380;-29
2023/07/14 01:06:59;;;;;;;4.78;2.78;;;;;;;;;;5060926;28;20033;-30
2023/07/14 01:09:25;;;;;;;8.60;2.55;;;;;;;;;;5060881;28;20092;-29
2023/07/14 01:11:54;;;;;;;6.75;2.40;;;;;;;;;;5060737;28;20096;-30
2023/07/14 01:14:23;;;;;;;6.45;2.92;;;;;;;;;;5060533;28;20025;-28
2023/07/14 01:16:52;;;;;;;9.95;2.63;;;;;;;;;;5060825;28;20017;-28
2023/07/14 01:19:36;;;;;;;7.55;2.88;;;;;;;;;;5060226;28;20104;-31
2023/07/14 01:22:22;;;;;;;8.13;2.65;;;;;;;;;;5057476;28;20024;-26
2023/07/14 01:24:54;;;;;;;5.95;2.35;;;;;;;;;;5057160;28;20356;-30
2023/07/14 01:27:20;;;;;;;7.40;3.10;;;;;;;;;;5057607;28;20451;-29
2023/07/14 01:29:47;;;;;;;4.95;2.40;;;;;;;;;;5057257;28;20027;-29
2023/07/14 01:32:16;;;;;;;9.93;3.05;;;;;;;;;;5057086;28;20079;-28
2023/07/14 01:34:43;;;;;;;8.27;2.72;;;;;;;;;;5057381;28;20028;-30
2023/07/14 01:37:09;;;;;;;3.40;1.90;;;;;;;;;;5057060;28;20045;-29
2023/07/14 01:39:36;;;;;;;8.80;2.78;;;;;;;;;;5057008;28;20036;-28
2023/07/14 01:42:02;;;;;;;5.60;2.42;;;;;;;;;;5057388;28;20349;-32
2023/07/14 01:44:28;;;;;;;6.70;2.65;;;;;;;;;;5057112;28;20021;-27
2023/07/14 01:46:54;;;;;;;5.18;2.35;;;;;;;;;;5057393;28;20017;-31
2023/07/14 01:49:28;;;;;;;9.45;2.25;;;;;;;;;;5057361;28;20049;-28
2023/07/14 01:51:59;;;;;;;5.07;2.53;;;;;;;;;;5057267;28;20021;-28
2023/07/14 01:54:28;;;;;;;7.68;2.65;;;;;;;;;;5057052;28;20108;-30
2023/07/14 01:56:56;;;;;;;5.82;2.75;;;;;;;;;;5056927;28;20071;-27
2023/07/14 01:59:25;;;;;;;10.27;3.10;;;;;;;;;;5057545;28;20055;-30
2023/07/14 02:01:52;;;;;;;6.20;2.58;;;;;;;;;;5056566;28;20044;-26
2023/07/14 02:04:21;;;;;;;5.57;2.53;;;;;;;;;;5056409;28;20104;-29
2023/07/14 02:06:48;;;;;;;5.10;2.60;;;;;;;;;;5056677;28;20025;-30
2023/07/14 02:09:17;;;;;;;4.32;2.17;;;;;;;;;;5056723;28;20239;-29
2023/07/14 02:11:43;;;;;;;4.55;2.13;;;;;;;;;;5038747;28;20371;-30
2023/07/14 02:14:14;;;;;;;6.65;2.40;;;;;;;;;;5056429;28;20103;-32
2023/07/14 02:16:41;;;;;;;5.82;2.63;;;;;;;;;;5056569;28;20035;-27
2023/07/14 02:19:11;;;;;;;5.40;1.95;;;;;;;;;;5056788;28;20478;-29
2023/07/14 02:21:37;;;;;;;5.18;2.83;;;;;;;;;;5056479;28;20326;-32
2023/07/14 02:24:04;;;;;;;4.90;1.98;;;;;;;;;;5055954;28;20039;-31
2023/07/14 02:26:36;;;;;;;3.65;2.17;;;;;;;;;;5056062;28;20029;-30
2023/07/14 02:29:02;;;;;;;5.65;3.42;;;;;;;;;;5056115;28;20021;-27
2023/07/14 02:31:36;;;;;;;6.18;2.33;;;;;;;;;;5055898;28;20021;-30
2023/07/14 02:34:03;;;;;;;3.38;2.10;;;;;;;;;;5055930;28;20040;-31
2023/07/14 02:36:29;;;;;;;4.18;1.98;;;;;;;;;;5056251;28;20078;-30
2023/07/14 02:38:55;;;;;;;4.45;1.80;;;;;;;;;;5055937;28;20096;-27
2023/07/14 02:41:25;;;;;;;6.40;2.17;;;;;;;;;;5056445;28;20043;-30
2023/07/14 02:43:54;;;;;;;3.88;2.35;;;;;;;;;;5038102;28;20036;-30
2023/07/14 02:46:24;;;;;;;8.45;2.42;;;;;;;;;;5055689;28;20021;-29
2023/07/14 02:48:51;;;;;;;4.13;2.20;;;;;;;;;;5056047;28;20041;-32
2023/07/14 02:51:17;;;;;;;3.72;1.92;;;;;;;;;;5055925;28;20474;-27
2023/07/14 02:53:43;;;;;;;3.38;1.95;;;;;;;;;;5055515;28;20033;-30
2023/07/14 02:56:10;;;;;;;2.88;2.10;;;;;;;;;;5055836;28;20083;-28
2023/07/14 02:58:36;;;;;;;8.45;3.03;;;;;;;;;;5055784;28;20048;-27
2023/07/14 03:01:03;;;;;;;7.40;2.40;;;;;;;;;;5055442;28;20097;-27
2023/07/14 03:03:30;;;;;;;6.82;2.47;;;;;;;;;;5055164;28;20376;-32
2023/07/14 03:05:56;;;;;;;5.70;2.55;;;;;;;;;;5055552;28;20124;-29
2023/07/14 03:08:23;;;;;;;5.50;2.50;;;;;;;;;;5055330;28;20380;-31
2023/07/14 03:10:55;;;;;;;3.22;1.92;;;;;;;;;;5055301;28;20020;-30
2023/07/14 03:13:22;;;;;;;3.95;2.50;;;;;;;;;;5038261;28;20108;-27
2023/07/14 03:15:48;;;;;;;2.72;1.85;;;;;;;;;;5055687;28;20086;-30
2023/07/14 03:18:14;;;;;;;4.22;2.10;;;;;;;;;;5055129;28;20086;-27
2023/07/14 03:20:41;;;;;;;6.53;2.97;;;;;;;;;;5037785;28;20170;-31
2023/07/14 03:23:08;;;;;;;2.88;1.83;;;;;;;;;;5055015;28;20049;-27
2023/07/14 03:25:34;;;;;;;1.75;1.60;;;;;;;;;;5054996;28;20032;-29
2023/07/14 03:28:03;;;;;;;3.90;2.45;;;;;;;;;;5055285;28;20044;-29
2023/07/14 03:30:30;;;;;;;3.90;2.28;;;;;;;;;;5055200;28;20348;-27
2023/07/14 03:32:56;;;;;;;6.10;1.98;;;;;;;;;;5055385;28;20048;-29
2023/07/14 03:35:23;;;;;;;4.78;2.05;;;;;;;;;;5055159;28;20029;-31
2023/07/14 03:37:49;;;;;;;5.55;2.03;;;;;;;;;;5054775;28;20056;-28
2023/07/14 03:40:15;;;;;;;2.30;1.75;;;;;;;;;;5054722;28;20037;-30
2023/07/14 03:42:43;;;;;;;4.00;1.67;;;;;;;;;;5054339;28;20025;-29
2023/07/14 03:45:09;;;;;;;3.10;2.20;;;;;;;;;;5054443;28;20040;-31
2023/07/14 03:47:39;;;;;;;1.75;1.63;;;;;;;;;;5054929;28;20032;-28
2023/07/14 03:50:06;;;;;;;4.22;2.05;;;;;;;;;;5054644;28;20029;-29
2023/07/14 03:52:33;;;;;;;5.70;2.15;;;;;;;;;;5036909;28;20103;-30
2023/07/14 03:54:59;;;;;;;2.05;1.77;;;;;;;;;;5054496;28;20025;-27
2023/07/14 03:57:26;;;;;;;2.38;1.88;;;;;;;;;;5054552;28;20032;-29
2023/07/14 03:59:52;;;;;;;3.97;2.15;;;;;;;;;;5054438;28;20029;-31
2023/07/14 04:02:18;;;;;;;4.20;2.13;;;;;;;;;;5054304;28;20025;-27
2023/07/14 04:04:45;;;;;;;3.08;2.00;;;;;;;;;;5054272;28;20052;-31
2023/07/14 04:07:11;;;;;;;4.85;2.20;;;;;;;;;;5054263;28;20035;-30
2023/07/14 04:09:37;;;;;;;1.83;1.52;;;;;;;;;;5054415;28;20095;-30
2023/07/14 04:12:03;;;;;;;3.85;2.63;;;;;;;;;;5054278;28;20039;-30
2023/07/14 04:14:30;;;;;;;6.53;2.75;;;;;;;;;;5054304;28;20433;-29
2023/07/14 04:16:56;;;;;;;3.17;1.92;;;;;;;;;;5054525;28;20098;-30
2023/07/14 04:19:22;;;;;;;2.40;1.63;;;;;;;;;;5054866;28;20443;-28
2023/07/14 04:21:49;;;;;;;4.03;1.65;;;;;;;;;;5054457;28;20087;-30
2023/07/14 04:24:15;;;;;;;3.25;1.58;;;;;;;;;;5054436;28;20087;-29
2023/07/14 04:26:42;;;;;;;2.50;1.70;;;;;;;;;;5054437;28;20470;-30
2023/07/14 04:29:11;;;;;;;9.13;2.28;;;;;;;;;;5054441;28;20035;-27
2023/07/14 04:31:38;;;;;;;3.72;1.70;;;;;;;;;;5054667;28;20048;-27
2023/07/14 04:34:05;;;;;;;8.45;2.25;;;;;;;;;;5054024;28;20394;-30
2023/07/14 04:36:31;;;;;;;4.18;2.00;;;;;;;;;;5036442;28;20082;-28
2023/07/14 04:39:05;;;;;;;2.60;1.90;;;;;;;;;;5054282;28;20029;-30
2023/07/14 04:41:32;;;;;;;5.13;2.05;;;;;;;;;;5054312;28;20033;-30
2023/07/14 04:44:02;;;;;;;2.70;1.85;;;;;;;;;;5054175;28;20423;-31
2023/07/14 04:46:28;;;;;;;6.80;2.30;;;;;;;;;;5054001;28;20099;-31
2023/07/14 04:48:54;;;;;;;7.15;1.75;;;;;;;;;;5054246;28;20048;-27
2023/07/14 04:51:20;;;;;;;4.90;1.83;;;;;;;;;;5053888;28;20022;-32
2023/07/14 04:53:47;;;;;;;6.68;1.80;;;;;;;;;;5053892;28;20403;-30
2023/07/14 04:56:13;;;;;;;4.63;1.90;;;;;;;;;;5055952;28;20057;-31
2023/07/14 04:58:39;;;;;;;4.40;1.70;;;;;;;;;;5057807;28;20047;-30
2023/07/14 05:01:05;;;;;;;4.05;2.00;;;;;;;;;;5057661;28;20029;-33
2023/07/14 05:03:31;;;;;;;4.15;1.83;;;;;;;;;;5036405;28;20049;-27
2023/07/14 05:05:57;;;;;;;6.70;2.03;;;;;;;;;;5037767;28;20021;-29
2023/07/14 05:08:24;;;;;;;3.75;1.50;;;;;;;;;;5037523;28;20025;-30
2023/07/14 05:10:50;;;;;;;5.35;1.80;;;;;;;;;;5037775;28;20105;-29
2023/07/14 05:13:16;;;;;;;8.30;1.95;;;;;;;;;;5037916;28;20353;-29
2023/07/14 05:15:44;;;;;;;5.00;1.60;;;;;;;;;;5037380;28;20030;-30
2023/07/14 05:18:10;;;;;;;3.60;1.98;;;;;;;;;;5036320;28;20032;-27
2023/07/14 05:20:36;;;;;;;6.97;2.47;;;;;;;;;;5037366;28;20365;-30
2023/07/14 05:23:03;;;;;;;6.22;2.38;;;;;;;;;;5037516;28;20029;-30
2023/07/14 05:25:29;;;;;;;6.70;2.55;;;;;;;;;;5037204;28;20044;-29
2023/07/14 05:27:55;;;;;;;6.03;1.98;;;;;;;;;;5037512;28;20338;-30
2023/07/14 05:30:21;;;;;;;3.03;2.05;;;;;;;;;;5037158;28;20029;-28
2023/07/14 05:32:49;;;;;;;10.50;2.42;;;;;;;;;;5036017;28;20047;-33
2023/07/14 05:35:16;;;;;;;7.32;2.40;;;;;;;;;;5037145;28;20460;-27
2023/07/14 05:37:43;;;;;;;5.15;2.75;;;;;;;;;;5037780;28;20033;-29
2023/07/14 05:40:11;;;;;;;7.53;2.08;;;;;;;;;;5037016;28;20097;-27
2023/07/14 05:42:38;;;;;;;3.63;1.50;;;;;;;;;;5037208;28;20523;-30
2023/07/14 05:45:05;;;;;;;7.00;1.80;;;;;;;;;;5037550;28;20034;-29
2023/07/14 05:47:31;;;;;;;5.07;2.22;;;;;;;;;;5035864;28;20021;-30
2023/07/14 05:49:58;;;;;;;6.38;2.22;;;;;;;;;;5035860;28;20025;-30
2023/07/14 05:52:24;;;;;;;12.05;3.63;;;;;;;;;;5036863;28;20353;-27
2023/07/14 05:54:50;;;;;;;14.00;3.85;;;;;;;;;;5036821;28;20021;-32
2023/07/14 05:57:16;;;;;;;14.98;2.10;;;;;;;;;;5037167;28;20026;-30
2023/07/14 05:59:42;;;;;;;11.90;2.13;;;;;;;;;;5035694;28;20026;-29
2023/07/14 06:02:14;;;;;;;12.25;2.33;;;;;;;;;;5036458;28;20025;-30
2023/07/14 06:04:41;;;;;;;10.80;2.05;;;;;;;;;;5053936;28;20045;-28
2023/07/14 06:07:07;;;;;;;12.55;2.05;;;;;;;;;;5055960;28;20021;-31
2023/07/14 06:09:34;;;;;;;7.85;2.42;;;;;;;;;;5056354;28;20309;-30
2023/07/14 06:12:02;;;;;;;19.52;3.20;;;;;;;;;;5056530;28;20407;-30
2023/07/14 06:14:29;;;;;;;10.07;2.38;;;;;;;;;;5056200;28;20053;-28
2023/07/14 06:16:55;;;;;;;10.52;2.20;;;;;;;;;;5039039;28;20021;-29
2023/07/14 06:19:21;;;;;;;8.55;2.35;;;;;;;;;;5056806;28;20067;-31
2023/07/14 06:21:47;;;;;;;6.00;2.05;;;;;;;;;;5056420;28;20025;-27
2023/07/14 06:24:14;;;;;;;3.22;1.88;;;;;;;;;;5056283;28;20025;-29
2023/07/14 06:26:40;;;;;;;8.65;2.17;;;;;;;;;;5056080;28;20503;-30
2023/07/14 06:29:06;;;;;;;5.75;2.33;;;;;;;;;;5056336;28;20021;-29
2023/07/14 06:31:33;;;;;;;28.92;4.85;;;;;;;;;;5056212;28;20078;-29
2023/07/14 06:33:59;;;;;;;4.90;2.90;;;;;;;;;;5038323;28;20021;-30
2023/07/14 06:36:25;;;;;;;10.68;2.50;;;;;;;;;;5055880;28;20024;-29
2023/07/14 06:38:51;;;;;;;7.22;2.92;;;;;;;;;;5055820;28;20029;-32
2023/07/14 06:41:17;;;;;;;3.78;2.20;;;;;;;;;;5055747;28;20022;-28
2023/07/14 06:43:44;;;;;;;10.27;2.17;;;;;;;;;;5055617;28;20021;-31
2023/07/14 06:46:10;;;;;;;8.02;2.17;;;;;;;;;;5055769;28;20103;-25
2023/07/14 06:48:36;;;;;;;8.98;2.25;;;;;;;;;;5055539;28;20021;-30
2023/07/14 06:51:02;;;;;;;5.93;1.90;;;;;;;;;;5055406;28;20101;-27
2023/07/14 06:53:29;;;;;;;3.58;1.98;;;;;;;;;;5055361;28;20017;-26
2023/07/14 06:55:55;;;;;;;5.80;2.13;;;;;;;;;;5055647;28;20388;-30
2023/07/14 06:58:22;;;;;;;4.90;2.28;;;;;;;;;;5055674;28;20100;-30
2023/07/14 07:00:48;;;;;;;10.82;2.40;;;;;;;;;;5055363;28;20028;-27
2023/07/14 07:03:15;;;;;;;4.45;2.42;;;;;;;;;;5055037;28;20132;-27
2023/07/14 07:05:43;;;;;;;4.45;1.90;;;;;;;;;;5055253;28;20037;-30
2023/07/14 07:08:10;;;;;;;5.80;2.00;;;;;;;;;;5055242;28;20028;-30
2023/07/14 07:10:36;;;;;;;12.45;2.70;;;;;;;;;;5055179;28;20086;-28
2023/07/14 07:13:03;;;;;;;10.65;2.55;;;;;;;;;;5037433;28;20021;-30
2023/07/14 07:15:29;;;;;;;10.25;3.13;;;;;;;;;;5055017;28;20032;-32
2023/07/14 07:17:55;;;;;;;7.93;3.15;;;;;;;;;;5054229;28;20388;-29
2023/07/14 07:20:22;;;;;;;8.55;2.50;;;;;;;;;;5055025;28;20032;-31
2023/07/14 07:22:48;;;;;;;10.30;3.35;;;;;;;;;;5054911;28;20122;-31
2023/07/14 07:25:16;;;;;;;5.18;2.53;;;;;;;;;;5054858;28;20032;-30
2023/07/14 07:27:42;;;;;;;3.97;2.65;;;;;;;;;;5054635;28;20094;-31
2023/07/14 07:30:09;;;;;;;4.07;2.20;;;;;;;;;;5054798;28;20096;-26
2023/07/14 07:32:36;;;;;;;6.45;2.00;;;;;;;;;;5054742;28;20362;-29
2023/07/14 07:35:03;;;;;;;8.02;2.65;;;;;;;;;;5054668;28;20452;-28
2023/07/14 07:37:31;;;;;;;6.45;2.10;;;;;;;;;;5037218;28;20033;-28
2023/07/14 07:39:59;;;;;;;10.60;2.38;;;;;;;;;;5054680;28;20355;-30
2023/07/14 07:42:25;;;;;;;4.13;1.85;;;;;;;;;;5055055;28;20029;-30
2023/07/14 07:44:51;;;;;;;6.75;2.30;;;;;;;;;;5054362;28;20091;-32
2023/07/14 07:47:18;;;;;;;5.50;3.08;;;;;;;;;;5054876;28;20017;-28
2023/07/14 07:49:44;;;;;;;8.15;2.17;;;;;;;;;;5055112;28;20398;-27
2023/07/14 07:52:12;;;;;;;2.83;1.90;;;;;;;;;;5037173;28;20163;-29
2023/07/14 07:54:41;;;;;;;5.13;3.10;;;;;;;;;;5054429;28;20043;-31
2023/07/14 07:57:09;;;;;;;22.75;4.90;;;;;;;;;;5054777;28;20028;-30
2023/07/14 07:59:35;;;;;;;4.80;1.88;;;;;;;;;;5054236;28;20029;-36
2023/07/14 08:02:01;;;;;;;3.45;1.73;;;;;;;;;;5054348;28;20029;-29
2023/07/14 08:04:28;;;;;;;6.90;1.85;;;;;;;;;;5033267;28;20042;-31
2023/07/14 08:06:54;;;;;;;6.28;2.03;;;;;;;;;;5034736;28;20025;-29
2023/07/14 08:09:21;;;;;;;6.72;2.10;;;;;;;;;;5034442;28;20099;-32
2023/07/14 08:11:48;;;;;;;5.15;2.22;;;;;;;;;;5034429;28;20087;-29
2023/07/14 08:14:15;;;;;;;5.40;2.35;;;;;;;;;;5034738;28;20056;-32
2023/07/14 08:16:42;;;;;;;5.85;1.80;;;;;;;;;;5034501;28;20033;-26
2023/07/14 08:19:08;;;;;;;8.48;2.55;;;;;;;;;;5034597;28;20104;-30
2023/07/14 08:21:38;;;;;;;9.27;2.60;;;;;;;;;;5033427;28;20033;-31
2023/07/14 08:24:04;;;;;;;6.28;2.58;;;;;;;;;;5034166;28;20083;-30
2023/07/14 08:26:35;;;;;;;3.47;2.22;;;;;;;;;;5034660;28;20049;-29
2023/07/14 08:29:01;;;;;;;6.03;2.22;;;;;;;;;;5034488;28;20108;-26
2023/07/14 08:31:27;;;;;;;8.50;2.60;;;;;;;;;;5038214;28;20022;-30
2023/07/14 08:33:53;;;;;;;4.38;1.90;;;;;;;;;;5038106;28;20014;-27
2023/07/14 08:36:20;;;;;;;5.45;2.42;;;;;;;;;;5038480;28;20094;-30
2023/07/14 08:38:46;;;;;;;4.30;1.90;;;;;;;;;;5038291;28;20103;-29
2023/07/14 08:41:46;;;;;;;6.20;2.42;;;;;;;;;;5038079;28;20022;-27
2023/07/14 08:44:34;;;;;;;5.22;2.22;;;;;;;;;;5038633;28;20044;-31
2023/07/14 08:47:21;;;;;;;7.43;2.33;;;;;;;;;;5038042;28;20025;-28
2023/07/14 08:49:53;;;;;;;9.10;2.30;;;;;;;;;;5038271;28;20013;-29
2023/07/14 08:52:32;;;;;;;8.13;2.15;;;;;;;;;;5038287;28;20013;-32
2023/07/14 08:55:05;;;;;;;7.15;3.03;;;;;;;;;;5037897;28;20025;-31
2023/07/14 08:57:34;;;;;;;10.25;2.40;;;;;;;;;;5037834;28;20052;-28
2023/07/14 09:00:03;;;;;;;7.68;2.75;;;;;;;;;;5037748;28;20030;-30
2023/07/14 09:02:33;;;;;;;4.95;2.25;;;;;;;;;;5037629;28;20029;-25
2023/07/14 09:05:01;;;;;;;6.97;2.42;;;;;;;;;;5036606;28;20465;-28
2023/07/14 09:07:28;;;;;;;5.28;2.17;;;;;;;;;;5037643;28;20100;-27
2023/07/14 09:09:55;;;;;;;4.28;2.72;;;;;;;;;;5037827;28;20030;-28
2023/07/14 09:12:24;;;;;;;14.57;2.95;;;;;;;;;;5037436;28;20100;-28
2023/07/14 09:14:55;;;;;;;4.90;2.55;;;;;;;;;;5036655;28;20040;-29
2023/07/14 09:17:39;;;;;;;7.53;2.40;;;;;;;;;;5037467;28;20040;-30
2023/07/14 09:20:12;;;;;;;8.18;2.47;;;;;;;;;;5037825;28;20408;-32
2023/07/14 09:22:38;;;;;;;10.85;3.03;;;;;;;;;;5037415;28;20033;-28
2023/07/14 09:25:13;;;;;;;14.30;4.32;;;;;;;;;;5037428;28;20101;-29
2023/07/14 09:27:41;;;;;;;13.45;2.70;;;;;;;;;;5036197;28;20036;-30
2023/07/14 09:30:18;;;;;;;10.50;2.40;;;;;;;;;;5037461;28;20060;-28
2023/07/14 09:32:49;;;;;;;14.38;3.60;;;;;;;;;;5036916;28;20021;-31
2023/07/14 09:35:15;;;;;;;;;;;;;;;;;;5037324;28;20034;-28
2023/07/14 09:38:03;;;;;;;10.05;2.33;;;;;;;;;;5037286;28;20332;-29
2023/07/14 09:40:34;;;;;;;11.93;2.92;;;;;;;;;;5033022;28;20056;-30
2023/07/14 09:43:01;;;;;;;;;;;;;;;;;;5036950;28;20040;-26
2023/07/14 09:45:38;;;;;;;8.00;4.05;;;;;;;;;;5036953;28;19920;-29
2023/07/14 09:48:19;;;;;;;7.88;3.28;;;;;;;;;;5036684;28;20033;-28
2023/07/14 09:50:51;;;;;;;5.75;2.90;;;;;;;;;;5036990;28;20121;-30
2023/07/14 09:53:17;;;;;;;5.93;2.50;;;;;;;;;;5036742;28;20503;-30
2023/07/14 09:55:52;;;;;;;4.22;2.47;;;;;;;;;;5036694;28;20029;-26
2023/07/14 09:58:21;;;;;;;6.75;2.72;;;;;;;;;;5037257;28;20026;-30
2023/07/14 10:00:49;;;;;;;17.10;2.60;;;;;;;;;;5037011;28;20029;-30
2023/07/14 10:03:16;;;;;;;12.68;2.20;;;;;;;;;;5042501;28;20053;-32
2023/07/14 10:05:48;;;;;;;9.48;2.60;;;;;;;;;;5056699;28;20369;-32
2023/07/14 10:08:25;;;;;;;14.98;3.22;;;;;;;;;;5056716;28;20471;-29
2023/07/14 10:10:52;;;;;;;8.43;2.78;;;;;;;;;;5056663;28;20021;-27
2023/07/14 10:13:21;;;;;;;8.43;2.83;;;;;;;;;;5056230;28;20033;-30
2023/07/14 10:15:53;;;;;;;14.05;4.88;;;;;;;;;;5056356;28;20032;-31
2023/07/14 10:18:20;;;;;;;6.68;3.42;;;;;;;;;;5056187;28;20103;-32
2023/07/14 10:20:57;;;;;;;10.98;3.60;;;;;;;;;;5056355;28;20028;-30
2023/07/14 10:23:25;;;;;;;6.40;3.40;;;;;;;;;;5055963;28;20036;-28
2023/07/14 10:25:53;;;;;;;6.88;2.88;;;;;;;;;;5055836;28;20065;-27
2023/07/14 10:28:22;;;;;;;9.02;2.42;;;;;;;;;;5055831;28;20078;-31
2023/07/14 10:30:52;;;;;;;6.10;2.80;;;;;;;;;;5055976;28;20017;-27
2023/07/14 10:33:24;;;;;;;11.10;3.30;;;;;;;;;;5038532;28;20021;-30
2023/07/14 10:35:58;;;;;;;13.07;2.83;;;;;;;;;;5056141;28;20387;-28
2023/07/14 10:38:32;;;;;;;6.47;2.67;;;;;;;;;;5055770;28;20029;-29
2023/07/14 10:41:06;;;;;;;13.30;2.83;;;;;;;;;;5056154;28;20406;-29
2023/07/14 10:43:39;;;;;;;8.05;2.60;;;;;;;;;;5055540;28;20036;-30
2023/07/14 10:46:11;;;;;;;10.60;2.17;;;;;;;;;;5055832;28;20470;-31
2023/07/14 10:48:39;;;;;;;7.18;2.60;;;;;;;;;;5055660;28;20087;-31
2023/07/14 10:51:20;;;;;;;8.45;2.10;;;;;;;;;;5055656;28;20368;-29
2023/07/14 10:53:46;;;;;;;;;;;;;;;;;;5055772;28;20024;-30
2023/07/14 10:56:21;;;;;;;5.90;2.38;;;;;;;;;;5055398;28;19995;-30
2023/07/14 10:58:51;;;;;;;7.80;2.63;;;;;;;;;;5055365;28;20032;-29
2023/07/14 11:01:21;;;;;;;4.35;2.47;;;;;;;;;;5055583;28;20108;-27
2023/07/14 11:03:47;;;;;;;6.88;2.83;;;;;;;;;;5054969;28;20067;-30
2023/07/14 11:06:39;;;;;;;7.05;3.10;;;;;;;;;;5055030;28;20036;-29
2023/07/14 11:09:10;;;;;;;4.53;2.80;;;;;;;;;;5053065;28;20033;-32
2023/07/14 11:11:39;;;;;;;;;;;;;;;;;;5056319;28;20074;-28
2023/07/14 11:14:11;;;;;;;5.93;2.70;;;;;;;;;;5054931;28;19915;-30
2023/07/14 11:17:07;;;;;;;4.43;2.40;;;;;;;;;;5055071;28;20021;-29
2023/07/14 11:19:49;;;;;;;7.07;2.63;;;;;;;;;;5018968;28;20058;-32
2023/07/14 11:22:18;;;;;;;6.00;3.05;;;;;;;;;;5055010;28;20040;-29
2023/07/14 11:25:00;;;;;;;10.68;2.92;;;;;;;;;;5054801;28;20052;-31
2023/07/14 11:27:26;;;;;;;5.47;2.75;;;;;;;;;;5055102;28;20025;-32
2023/07/14 11:29:58;;;;;;;8.30;2.58;;;;;;;;;;5054738;28;20074;-28
2023/07/14 11:32:28;;;;;;;10.27;3.53;;;;;;;;;;5054722;28;20368;-30
2023/07/14 11:35:07;;;;;;;10.52;3.35;;;;;;;;;;5054396;28;20029;-29
2023/07/14 11:37:45;;;;;;;6.38;3.00;;;;;;;;;;5054718;28;20035;-30
2023/07/14 11:40:20;;;;;;;13.02;3.08;;;;;;;;;;5054730;28;20392;-29
2023/07/14 11:42:48;;;;;;;9.18;3.40;;;;;;;;;;5054601;28;20112;-31
2023/07/14 11:45:19;;;;;;;9.70;2.90;;;;;;;;;;5036910;28;20017;-30
2023/07/14 11:47:46;;;;;;;9.38;3.13;;;;;;;;;;5054454;28;20364;-29
2023/07/14 11:50:18;;;;;;;10.98;2.72;;;;;;;;;;5054345;28;20048;-30
2023/07/14 11:53:23;;;;;;;14.27;3.30;;;;;;;;;;5054370;28;20096;-29
2023/07/14 11:55:51;;;;;;;7.45;2.75;;;;;;;;;;5013190;28;20041;-28
2023/07/14 11:58:26;;;;;;;10.65;3.13;;;;;;;;;;4996799;28;20026;-27
2023/07/14 12:00:54;;;;;;;6.18;3.20;;;;;;;;;;5035786;28;20052;-27
2023/07/14 12:03:28;;;;;;;16.00;3.45;;;;;;;;;;5033009;28;20072;-32
2023/07/14 12:06:14;;;;;;;18.85;2.95;;;;;;;;;;5034017;28;20108;-29
2023/07/14 12:08:41;;;;;;;12.35;3.03;;;;;;;;;;5034645;28;20026;-28
2023/07/14 12:11:23;;;;;;;7.22;4.07;;;;;;;;;;5034399;28;20022;-31
2023/07/14 12:13:53;;;;;;;7.63;2.88;;;;;;;;;;5033327;28;20428;-31
2023/07/14 12:16:22;;;;;;;7.65;2.97;;;;;;;;;;5034341;28;20025;-31
2023/07/14 12:18:57;;;;;;;13.98;3.13;;;;;;;;;;5033353;28;20025;-27
2023/07/14 12:21:26;;;;;;;8.82;2.58;;;;;;;;;;5034533;28;20024;-31
2023/07/14 12:23:53;;;;;;;5.60;2.42;;;;;;;;;;5034314;28;20100;-32
2023/07/14 12:26:35;;;;;;;9.07;3.00;;;;;;;;;;5034546;28;20356;-26
2023/07/14 12:29:02;;;;;;;6.30;3.00;;;;;;;;;;5034387;28;20036;-29
2023/07/14 12:31:34;;;;;;;4.13;2.65;;;;;;;;;;5034092;28;20025;-27
2023/07/14 12:34:00;;;;;;;13.60;3.10;;;;;;;;;;5034247;28;20030;-29
2023/07/14 12:36:29;;;;;;;7.72;3.72;;;;;;;;;;5034189;28;20084;-30
2023/07/14 12:38:56;;;;;;;10.15;2.58;;;;;;;;;;5034178;28;20022;-29
2023/07/14 12:41:24;;;;;;;7.47;2.78;;;;;;;;;;5034033;28;20092;-32
2023/07/14 12:43:53;;;;;;;7.05;2.75;;;;;;;;;;5034001;28;20107;-27
2023/07/14 12:46:19;;;;;;;8.18;3.10;;;;;;;;;;5033857;28;20033;-29
2023/07/14 12:48:46;;;;;;;11.43;3.55;;;;;;;;;;5034079;28;20033;-32
2023/07/14 12:51:21;;;;;;;10.93;3.45;;;;;;;;;;5033097;28;20032;-28
2023/07/14 12:54:00;;;;;;;15.20;3.42;;;;;;;;;;5033986;28;20100;-32
2023/07/14 12:56:29;;;;;;;3.67;2.70;;;;;;;;;;5033092;28;20364;-29
2023/07/14 12:58:55;;;;;;;7.38;2.67;;;;;;;;;;5033921;28;20033;-29
2023/07/14 13:01:21;;;;;;;10.15;3.83;;;;;;;;;;5034223;28;20108;-30
2023/07/14 13:03:48;;;;;;;10.02;3.50;;;;;;;;;;5043999;28;20056;-30
2023/07/14 13:06:18;;;;;;;10.70;3.20;;;;;;;;;;5053916;28;20100;-26
2023/07/14 13:08:47;;;;;;;6.13;3.58;;;;;;;;;;5054265;28;20029;-30
2023/07/14 13:11:19;;;;;;;13.73;2.88;;;;;;;;;;5053766;28;20092;-32
2023/07/14 13:13:46;;;;;;;4.53;2.60;;;;;;;;;;5054006;28;20025;-32
2023/07/14 13:16:12;;;;;;;8.23;3.28;;;;;;;;;;5054136;28;20150;-26
2023/07/14 13:18:39;;;;;;;13.85;3.30;;;;;;;;;;5039749;28;20455;-30
2023/07/14 13:21:25;;;;;;;6.30;3.55;;;;;;;;;;5057242;28;20131;-30
2023/07/14 13:23:55;;;;;;;10.07;3.15;;;;;;;;;;5057374;28;20052;-28
2023/07/14 13:26:21;;;;;;;5.57;2.70;;;;;;;;;;5057251;28;20039;-30
2023/07/14 13:28:58;;;;;;;6.60;3.28;;;;;;;;;;5057235;28;20463;-31
2023/07/14 13:31:31;;;;;;;11.10;3.63;;;;;;;;;;5057030;28;20348;-30
2023/07/14 13:33:57;;;;;;;7.47;2.75;;;;;;;;;;5039431;28;20029;-34
2023/07/14 13:36:28;;;;;;;3.30;2.88;;;;;;;;;;5056748;28;20029;-30
2023/07/14 13:38:57;;;;;;;7.93;2.85;;;;;;;;;;5056663;28;20166;-30
2023/07/14 13:41:27;;;;;;;10.85;3.47;;;;;;;;;;5057035;28;20108;-34
2023/07/14 13:44:13;;;;;;;8.57;2.92;;;;;;;;;;5056975;28;20547;-31
2023/07/14 13:46:39;;;;;;;7.88;3.13;;;;;;;;;;5056757;28;20131;-29
2023/07/14 13:49:07;;;;;;;8.07;4.18;;;;;;;;;;5039124;28;20028;-29
2023/07/14 13:51:35;;;;;;;7.53;3.25;;;;;;;;;;5056538;28;20013;-30
2023/07/14 13:54:02;;;;;;;8.10;3.33;;;;;;;;;;5057002;28;20037;-30
2023/07/14 13:56:28;;;;;;;6.40;3.40;;;;;;;;;;5056836;28;20099;-29
2023/07/14 13:58:56;;;;;;;14.10;2.85;;;;;;;;;;5056521;28;20348;-31
2023/07/14 14:01:23;;;;;;;8.20;3.30;;;;;;;;;;5056723;28;20079;-28
2023/07/14 14:03:54;;;;;;;14.10;3.72;;;;;;;;;;5056302;28;20048;-32
2023/07/14 14:06:20;;;;;;;;;;;;;;;;;;5057145;28;20025;-26
2023/07/14 14:08:47;;;;;;;8.00;3.08;;;;;;;;;;5056737;28;19904;-30
2023/07/14 14:11:13;;;;;;;7.28;2.88;;;;;;;;;;5056402;28;20096;-31
2023/07/14 14:13:39;;;;;;;20.45;3.75;;;;;;;;;;5056212;28;20029;-27
2023/07/14 14:16:07;;;;;;;13.07;3.35;;;;;;;;;;5056383;28;20025;-32
2023/07/14 14:18:34;;;;;;;14.23;3.53;;;;;;;;;;5056337;28;20039;-30
2023/07/14 14:21:00;;;;;;;9.68;3.40;;;;;;;;;;5038671;28;20035;-30
2023/07/14 14:23:27;;;;;;;14.15;3.65;;;;;;;;;;5056049;28;20367;-27
2023/07/14 14:25:53;;;;;;;6.45;3.55;;;;;;;;;;5056290;28;20046;-29
2023/07/14 14:28:22;;;;;;;14.82;3.25;;;;;;;;;;5055640;28;20060;-28
2023/07/14 14:30:52;;;;;;;6.53;2.92;;;;;;;;;;5056239;28;20017;-32
2023/07/14 14:33:26;;;;;;;20.77;3.35;;;;;;;;;;5056184;28;20021;-31
2023/07/14 14:35:52;;;;;;;9.43;3.50;;;;;;;;;;5055862;28;20040;-27
2023/07/14 14:38:27;;;;;;;19.33;4.43;;;;;;;;;;5055731;28;20021;-30
2023/07/14 14:40:54;;;;;;;10.38;3.42;;;;;;;;;;5038173;28;20025;-29
2023/07/14 14:43:22;;;;;;;11.02;3.38;;;;;;;;;;5055761;28;20098;-29
2023/07/14 14:45:48;;;;;;;9.02;3.03;;;;;;;;;;5055389;28;20470;-30
2023/07/14 14:48:15;;;;;;;10.07;2.97;;;;;;;;;;5055468;28;20048;-28
2023/07/14 14:50:41;;;;;;;18.83;3.95;;;;;;;;;;5055691;28;20204;-30